Time;durP1;ratioP1;P1;durP2;ratioP2;P2;SDS_P1;SDS_P2;PMS_P1;PMS_P2;Temp;Humidity;BMP_temperature;BMP_pressure;BME280_temperature;BME280_humidity;BME280_pressure;Samples;Min_cycle;Max_cycle;Signal;HPM_P1;HPM_P2
2021/04/15 00:02:20;;;;;;;9.63;6.85;;;3.20;99.90;;;;;;5016034;28;20204;-80
2021/04/15 00:04:47;;;;;;;13.63;7.18;;;3.30;99.90;;;;;;5019505;28;20295;-81
2021/04/15 00:07:13;;;;;;;13.85;8.70;;;3.70;99.90;;;;;;5023353;28;20255;-81
2021/04/15 00:09:39;;;;;;;11.68;7.22;;;3.30;99.90;;;;;;5020160;28;20299;-81
2021/04/15 00:12:06;;;;;;;10.85;7.55;;;3.30;99.90;;;;;;5020971;28;20286;-81
2021/04/15 00:14:34;;;;;;;13.02;8.30;;;3.40;99.90;;;;;;5019291;28;20219;-81
2021/04/15 00:17:00;;;;;;;11.45;7.82;;;3.40;99.90;;;;;;5021376;28;20260;-81
2021/04/15 00:19:27;;;;;;;12.90;8.43;;;3.30;99.90;;;;;;5023310;28;20203;-81
2021/04/15 00:21:53;;;;;;;11.35;7.70;;;3.40;99.90;;;;;;5023356;28;20277;-81
2021/04/15 00:24:19;;;;;;;12.13;7.55;;;3.50;99.90;;;;;;5026822;28;20266;-81
2021/04/15 00:26:46;;;;;;;12.10;7.95;;;3.30;99.90;;;;;;5027225;28;20616;-80
2021/04/15 00:29:12;;;;;;;12.85;8.88;;;3.50;99.90;;;;;;5026340;28;20235;-83
2021/04/15 00:31:39;;;;;;;12.95;9.80;;;3.40;99.90;;;;;;5006780;28;20220;-80
2021/04/15 00:34:06;;;;;;;14.32;9.40;;;3.40;99.90;;;;;;5018587;28;20257;-80
2021/04/15 00:36:32;;;;;;;13.40;8.82;;;3.30;99.90;;;;;;5018501;28;20295;-81
2021/04/15 00:38:58;;;;;;;12.27;8.45;;;3.30;99.90;;;;;;5023768;28;20206;-80
2021/04/15 00:41:25;;;;;;;11.75;8.00;;;3.20;99.90;;;;;;5019810;28;20203;-80
2021/04/15 00:43:51;;;;;;;14.20;9.80;;;3.30;99.90;;;;;;5021662;28;20238;-81
2021/04/15 00:46:51;;;;;;;17.35;9.57;;;3.10;99.90;;;;;;5019029;28;20309;-81
2021/04/15 00:49:24;;;;;;;13.00;9.32;;;2.90;99.90;;;;;;5024239;28;20212;-80
2021/04/15 00:51:53;;;;;;;12.23;9.60;;;3.20;99.90;;;;;;5023497;28;20207;-80
2021/04/15 00:54:32;;;;;;;11.90;8.93;;;3.30;99.90;;;;;;5023856;28;20556;-81
2021/04/15 00:56:59;;;;;;;13.90;10.45;;;3.00;99.90;;;;;;5020305;28;20330;-80
2021/04/15 00:59:27;;;;;;;13.25;9.32;;;3.20;99.90;;;;;;5020628;28;20212;-81
2021/04/15 01:01:54;;;;;;;17.85;10.50;;;2.90;99.90;;;;;;5019630;28;20275;-81
2021/04/15 01:04:22;;;;;;;12.60;9.50;;;2.90;99.90;;;;;;5020381;28;20207;-81
2021/04/15 01:06:49;;;;;;;11.15;8.00;;;3.20;99.90;;;;;;5021554;28;20341;-81
2021/04/15 01:09:16;;;;;;;14.38;9.50;;;3.00;99.90;;;;;;5020361;28;20239;-81
2021/04/15 01:11:56;;;;;;;13.23;9.65;;;2.90;99.90;;;;;;5020376;28;20267;-81
2021/04/15 01:14:36;;;;;;;17.67;9.35;;;3.00;99.90;;;;;;5017512;28;20195;-81
2021/04/15 01:17:08;;;;;;;13.90;10.10;;;3.00;99.90;;;;;;5019882;28;20250;-80
2021/04/15 01:20:15;;;;;;;16.00;10.30;;;2.90;99.90;;;;;;5020457;28;20231;-80
2021/04/15 01:22:52;;;;;;;12.30;9.00;;;2.90;99.90;;;;;;5001762;28;20240;-80
2021/04/15 01:25:29;;;;;;;16.15;10.10;;;2.80;99.90;;;;;;5005122;28;20200;-81
2021/04/15 01:28:03;;;;;;;16.08;9.52;;;2.90;99.90;;;;;;5019371;28;20394;-80
2021/04/15 01:30:35;;;;;;;13.63;10.00;;;3.00;99.90;;;;;;5019665;28;20223;-80
2021/04/15 01:33:12;;;;;;;12.18;9.10;;;2.70;99.90;;;;;;5018688;28;20266;-80
2021/04/15 01:35:44;;;;;;;15.50;9.25;;;2.90;99.90;;;;;;5018551;28;20737;-81
2021/04/15 01:38:13;;;;;;;14.25;9.43;;;2.80;99.90;;;;;;5029526;28;20313;-81
2021/04/15 01:40:44;;;;;;;14.32;10.15;;;3.00;99.90;;;;;;5017796;28;20212;-80
2021/04/15 01:43:15;;;;;;;18.73;10.02;;;2.90;99.90;;;;;;5013226;28;20353;-80
2021/04/15 01:45:44;;;;;;;15.52;9.82;;;2.80;99.90;;;;;;5013430;28;20204;-80
2021/04/15 01:48:15;;;;;;;14.50;9.75;;;2.80;99.90;;;;;;5012684;28;21008;-79
2021/04/15 01:50:46;;;;;;;18.75;10.35;;;2.80;99.90;;;;;;5013046;28;20688;-80
2021/04/15 01:53:18;;;;;;;13.15;9.38;;;2.90;99.90;;;;;;5013841;28;20208;-80
2021/04/15 01:55:51;;;;;;;20.98;9.55;;;2.60;99.90;;;;;;5013159;28;20337;-80
2021/04/15 01:58:23;;;;;;;20.10;9.50;;;2.80;99.90;;;;;;5013666;28;20227;-80
2021/04/15 02:00:58;;;;;;;15.40;9.77;;;2.70;99.90;;;;;;5011668;28;20226;-80
2021/04/15 02:03:28;;;;;;;15.35;10.10;;;2.60;99.90;;;;;;5014854;28;20196;-80
2021/04/15 02:05:58;;;;;;;15.90;10.15;;;2.60;99.90;;;;;;5017336;28;20251;-80
2021/04/15 02:08:27;;;;;;;14.20;9.45;;;2.70;99.90;;;;;;5017405;28;20293;-80
2021/04/15 02:10:59;;;;;;;14.45;9.90;;;2.80;99.90;;;;;;5019216;28;20208;-80
2021/04/15 02:13:27;;;;;;;13.52;9.60;;;2.60;99.90;;;;;;5017127;28;20226;-80
2021/04/15 02:15:58;;;;;;;17.30;9.20;;;2.60;99.90;;;;;;5017051;28;20342;-81
2021/04/15 02:18:28;;;;;;;17.52;10.48;;;2.60;99.90;;;;;;5029694;28;20228;-80
2021/04/15 02:21:01;;;;;;;14.05;8.93;;;2.50;99.90;;;;;;5023768;28;20326;-79
2021/04/15 02:23:34;;;;;;;13.55;9.68;;;2.60;99.90;;;;;;5022294;28;20235;-79
2021/04/15 02:26:05;;;;;;;17.52;10.02;;;2.50;99.90;;;;;;5021498;28;20347;-79
2021/04/15 02:28:40;;;;;;;15.65;10.82;;;2.40;99.90;;;;;;5017595;28;20311;-79
2021/04/15 02:31:12;;;;;;;16.23;10.95;;;2.60;99.90;;;;;;5018246;28;20294;-81
2021/04/15 02:33:44;;;;;;;14.85;10.50;;;2.40;99.90;;;;;;5009552;28;20223;-80
2021/04/15 02:36:11;;;;;;;20.48;11.02;;;2.70;99.90;;;;;;5018964;28;20227;-80
2021/04/15 02:38:46;;;;;;;17.80;10.85;;;2.80;99.90;;;;;;5003335;28;20220;-80
2021/04/15 02:41:17;;;;;;;18.02;12.00;;;2.70;99.90;;;;;;5026938;28;20271;-80
2021/04/15 02:43:51;;;;;;;19.33;11.60;;;2.60;99.90;;;;;;5024115;28;20211;-79
2021/04/15 02:46:22;;;;;;;17.48;10.80;;;2.70;99.90;;;;;;5011991;28;20228;-80
2021/04/15 02:48:50;;;;;;;14.38;10.00;;;2.60;99.90;;;;;;5015368;28;20227;-79
2021/04/15 02:51:22;;;;;;;16.30;10.18;;;2.50;99.90;;;;;;5016573;28;20275;-79
2021/04/15 02:53:53;;;;;;;13.25;8.90;;;2.50;99.90;;;;;;5015662;28;20207;-79
2021/04/15 02:56:24;;;;;;;15.30;9.98;;;2.40;99.90;;;;;;5016302;28;20464;-79
2021/04/15 02:58:56;;;;;;;15.00;10.30;;;2.60;99.90;;;;;;5015663;28;20695;-79
2021/04/15 03:01:29;;;;;;;13.77;10.63;;;2.40;99.90;;;;;;5015861;28;20294;-79
2021/04/15 03:03:57;;;;;;;15.13;10.57;;;2.40;99.90;;;;;;5016076;28;20231;-79
2021/04/15 03:06:30;;;;;;;13.75;10.02;;;2.40;99.90;;;;;;5017576;28;20234;-80
2021/04/15 03:09:02;;;;;;;14.88;10.38;;;2.50;99.90;;;;;;5017468;28;20224;-80
2021/04/15 03:11:34;;;;;;;13.68;9.15;;;2.50;99.90;;;;;;5005359;28;20304;-79
2021/04/15 03:14:06;;;;;;;17.63;11.00;;;2.50;99.90;;;;;;5019767;28;20233;-79
2021/04/15 03:16:38;;;;;;;17.20;9.63;;;2.40;99.90;;;;;;5022743;28;20236;-80
2021/04/15 03:19:08;;;;;;;18.50;10.40;;;2.40;99.90;;;;;;5023259;28;20236;-80
2021/04/15 03:21:41;;;;;;;14.32;10.23;;;2.50;99.90;;;;;;5012304;28;20295;-79
2021/04/15 03:24:12;;;;;;;17.75;11.25;;;2.40;99.90;;;;;;5015046;28;20204;-79
2021/04/15 03:26:47;;;;;;;14.40;10.05;;;2.40;99.90;;;;;;5001608;28;20235;-79
2021/04/15 03:29:24;;;;;;;17.05;11.65;;;2.20;99.90;;;;;;5015978;28;20775;-80
2021/04/15 03:32:02;;;;;;;17.33;10.35;;;2.20;99.90;;;;;;5017172;28;20500;-80
2021/04/15 03:34:38;;;;;;;15.00;10.18;;;2.50;99.90;;;;;;5016731;28;20210;-80
2021/04/15 03:37:05;;;;;;;13.52;10.10;;;2.20;99.90;;;;;;5006524;28;20351;-79
2021/04/15 03:39:34;;;;;;;18.75;11.45;;;2.10;99.90;;;;;;5014428;28;20347;-80
2021/04/15 03:42:06;;;;;;;18.58;11.40;;;2.30;99.90;;;;;;5005686;28;20230;-80
2021/04/15 03:44:38;;;;;;;18.92;13.93;;;2.00;99.90;;;;;;5009604;28;20301;-80
2021/04/15 03:47:09;;;;;;;17.55;11.65;;;2.10;99.90;;;;;;5017154;28;20315;-80
2021/04/15 03:49:40;;;;;;;15.65;9.80;;;2.10;99.90;;;;;;5013678;28;20205;-79
2021/04/15 03:52:10;;;;;;;17.30;11.30;;;2.00;99.90;;;;;;5004013;28;20294;-80
2021/04/15 03:54:41;;;;;;;20.40;10.85;;;2.20;99.90;;;;;;5016176;28;20279;-80
2021/04/15 03:57:11;;;;;;;14.70;10.43;;;2.20;99.90;;;;;;5016295;28;20227;-79
2021/04/15 03:59:42;;;;;;;16.73;11.50;;;2.20;99.90;;;;;;5017347;28;20291;-79
2021/04/15 04:02:13;;;;;;;15.85;11.02;;;2.00;99.90;;;;;;5024234;28;20303;-79
2021/04/15 04:04:44;;;;;;;16.75;11.57;;;1.80;99.90;;;;;;5018845;28;20386;-80
2021/04/15 04:07:24;;;;;;;23.10;12.27;;;1.90;99.90;;;;;;5015928;28;20298;-79
2021/04/15 04:09:57;;;;;;;19.98;10.88;;;2.20;99.90;;;;;;5014030;28;20211;-79
2021/04/15 04:12:29;;;;;;;16.20;9.98;;;2.00;99.90;;;;;;5017613;28;20298;-80
2021/04/15 04:15:00;;;;;;;21.55;13.02;;;2.00;99.90;;;;;;4998385;28;20215;-79
2021/04/15 04:17:35;;;;;;;15.02;10.40;;;2.10;99.90;;;;;;5006464;28;20278;-80
2021/04/15 04:20:03;;;;;;;17.27;11.25;;;2.20;99.90;;;;;;5014810;28;20210;-80
2021/04/15 04:22:37;;;;;;;17.60;11.90;;;2.00;99.90;;;;;;5014771;28;20211;-80
2021/04/15 04:25:10;;;;;;;15.90;10.50;;;1.90;99.90;;;;;;5014556;28;20209;-80
2021/04/15 04:27:41;;;;;;;14.10;9.65;;;2.20;99.90;;;;;;5015062;28;20268;-80
2021/04/15 04:30:11;;;;;;;12.70;9.48;;;2.00;99.90;;;;;;5014408;28;20568;-80
2021/04/15 04:32:40;;;;;;;15.98;10.70;;;1.90;99.90;;;;;;5012157;28;20222;-80
2021/04/15 04:35:11;;;;;;;15.57;10.48;;;2.20;99.90;;;;;;5014780;28;20291;-79
2021/04/15 04:37:39;;;;;;;16.45;11.00;;;2.00;99.90;;;;;;5026781;28;20227;-79
2021/04/15 04:40:11;;;;;;;14.15;9.63;;;1.90;99.90;;;;;;5030158;28;20196;-80
2021/04/15 04:42:41;;;;;;;17.70;10.98;;;1.90;99.90;;;;;;5017112;28;20216;-80
2021/04/15 04:45:09;;;;;;;15.60;11.25;;;2.00;99.90;;;;;;5010721;28;20346;-79
2021/04/15 04:47:46;;;;;;;17.73;10.93;;;2.10;99.90;;;;;;5010289;28;20251;-80
2021/04/15 04:50:25;;;;;;;18.00;10.48;;;1.90;99.90;;;;;;5022981;28;20239;-80
2021/04/15 04:52:57;;;;;;;15.25;9.90;;;2.00;99.90;;;;;;5019294;28;20322;-80
2021/04/15 04:55:27;;;;;;;12.38;9.88;;;2.00;99.90;;;;;;5027316;28;20216;-80
2021/04/15 04:57:54;;;;;;;17.25;10.27;;;1.90;99.90;;;;;;5017807;28;20259;-81
2021/04/15 05:00:22;;;;;;;16.13;10.35;;;2.00;99.90;;;;;;5012728;28;20278;-81
2021/04/15 05:02:54;;;;;;;15.23;10.45;;;1.90;99.90;;;;;;5020104;28;20705;-81
2021/04/15 05:05:24;;;;;;;17.13;9.70;;;1.80;99.90;;;;;;5020071;28;20290;-81
2021/04/15 05:07:57;;;;;;;15.27;9.63;;;1.90;99.90;;;;;;5021082;28;20234;-81
2021/04/15 05:10:26;;;;;;;16.75;9.93;;;1.90;99.90;;;;;;5018782;28;20290;-81
2021/04/15 05:13:05;;;;;;;14.40;10.63;;;1.90;99.90;;;;;;5006754;28;20208;-79
2021/04/15 05:15:31;;;;;;;17.27;11.55;;;2.10;99.90;;;;;;5011264;28;20210;-80
2021/04/15 05:17:59;;;;;;;14.55;9.75;;;2.20;99.90;;;;;;5018895;28;20266;-80
2021/04/15 05:20:27;;;;;;;14.25;10.07;;;1.90;99.90;;;;;;5016818;28;20250;-79
2021/04/15 05:22:58;;;;;;;18.90;11.00;;;2.20;99.90;;;;;;5015985;28;20250;-79
2021/04/15 05:25:31;;;;;;;13.25;8.80;;;2.10;99.90;;;;;;5013876;28;20287;-79
2021/04/15 05:27:58;;;;;;;12.52;9.23;;;2.00;99.90;;;;;;5001669;28;20232;-80
2021/04/15 05:30:45;;;;;;;17.67;10.07;;;2.10;99.90;;;;;;5022283;28;20203;-80
2021/04/15 05:33:18;;;;;;;16.25;10.40;;;2.20;99.90;;;;;;5027960;28;20205;-80
2021/04/15 05:35:49;;;;;;;13.15;9.90;;;2.30;99.90;;;;;;5024793;28;20220;-80
2021/04/15 05:38:16;;;;;;;13.68;9.68;;;2.30;99.90;;;;;;5038705;28;20207;-79
2021/04/15 05:40:53;;;;;;;14.13;9.60;;;2.40;99.90;;;;;;5019894;28;20223;-79
2021/04/15 05:43:52;;;;;;;15.23;10.85;;;2.30;99.90;;;;;;5018713;28;20219;-79
2021/04/15 05:46:23;;;;;;;17.35;10.85;;;2.20;99.90;;;;;;4946383;29;20276;-79
2021/04/15 05:48:56;;;;;;;17.48;10.30;;;2.40;99.90;;;;;;5011003;28;20323;-79
2021/04/15 05:51:27;;;;;;;15.88;10.18;;;2.30;99.90;;;;;;5024462;28;20215;-80
2021/04/15 05:53:58;;;;;;;17.13;10.07;;;2.50;99.90;;;;;;5018519;28;20575;-80
2021/04/15 05:56:29;;;;;;;13.82;9.57;;;2.60;99.90;;;;;;5017135;28;20314;-80
2021/04/15 05:59:02;;;;;;;15.20;9.35;;;2.40;99.90;;;;;;5003170;28;20308;-80
2021/04/15 06:01:37;;;;;;;13.35;9.38;;;2.60;99.90;;;;;;5020692;28;20291;-80
2021/04/15 06:04:11;;;;;;;14.80;9.50;;;2.80;99.90;;;;;;5020597;28;20238;-81
2021/04/15 06:06:40;;;;;;;13.63;9.65;;;2.70;99.90;;;;;;5025115;28;20238;-80
2021/04/15 06:09:08;;;;;;;13.60;8.75;;;2.80;99.90;;;;;;5016231;28;20299;-80
2021/04/15 06:11:56;;;;;;;10.88;7.07;;;2.90;99.90;;;;;;5004824;28;20279;-80
2021/04/15 06:14:30;;;;;;;20.05;7.43;;;3.00;99.90;;;;;;5013276;28;20684;-80
2021/04/15 06:17:19;;;;;;;11.00;7.00;;;3.10;99.90;;;;;;5009952;28;20235;-79
2021/04/15 06:19:52;;;;;;;10.90;6.70;;;3.30;99.90;;;;;;5010519;28;20702;-80
2021/04/15 06:22:21;;;;;;;15.82;8.57;;;3.60;99.90;;;;;;5006843;28;20211;-79
2021/04/15 06:24:52;;;;;;;12.80;7.85;;;3.50;99.90;;;;;;5020025;28;20199;-80
2021/04/15 06:27:20;;;;;;;21.85;8.25;;;3.40;99.90;;;;;;5015517;28;20220;-80
2021/04/15 06:29:56;;;;;;;70.75;16.02;;;3.50;99.90;;;;;;5002300;28;20270;-77
2021/04/15 06:32:26;;;;;;;249.10;33.10;;;3.30;99.90;;;;;;5006480;28;20658;-77
2021/04/15 06:34:55;;;;;;;70.60;15.85;;;3.50;99.90;;;;;;5015027;28;20575;-76
2021/04/15 06:37:30;;;;;;;19.45;9.18;;;3.50;99.90;;;;;;5022093;28;20223;-76
2021/04/15 06:40:02;;;;;;;14.05;9.40;;;3.70;99.90;;;;;;5019249;28;20210;-77
2021/04/15 06:43:21;;;;;;;43.28;11.80;;;3.70;99.90;;;;;;5018065;28;20282;-78
2021/04/15 06:46:02;;;;;;;9.63;5.65;;;3.60;99.90;;;;;;5013528;28;20683;-78
2021/04/15 06:49:02;;;;;;;11.82;7.97;;;3.90;99.90;;;;;;5004290;28;20280;-77
2021/04/15 06:51:46;;;;;;;13.60;7.05;;;3.70;99.90;;;;;;5000474;28;20261;-77
2021/04/15 06:54:37;;;;;;;12.85;7.55;;;3.90;99.90;;;;;;5015264;28;20246;-78
2021/04/15 06:57:25;;;;;;;10.25;6.90;;;3.80;99.90;;;;;;5018869;28;20224;-77
2021/04/15 07:00:17;;;;;;;14.68;6.43;;;4.00;99.90;;;;;;5012834;28;20294;-77
2021/04/15 07:03:21;;;;;;;9.60;5.90;;;3.90;99.90;;;;;;5009204;28;20617;-78
2021/04/15 07:05:54;;;;;;;12.13;6.15;;;4.10;99.90;;;;;;4979608;28;20212;-77
2021/04/15 07:08:54;;;;;;;12.18;6.55;;;4.10;99.90;;;;;;5014723;28;20338;-78
2021/04/15 07:11:48;;;;;;;11.73;7.38;;;4.50;99.90;;;;;;5011513;28;20290;-77
2021/04/15 07:14:29;;;;;;;10.55;6.97;;;4.30;99.90;;;;;;5015881;28;20200;-77
2021/04/15 07:17:24;;;;;;;9.43;6.20;;;4.50;99.90;;;;;;5016834;28;20228;-78
2021/04/15 07:20:35;;;;;;;12.50;6.22;;;4.70;99.90;;;;;;5015691;28;20677;-79
2021/04/15 07:23:41;;;;;;;9.35;6.25;;;4.60;99.90;;;;;;5023304;28;20223;-79
2021/04/15 07:26:33;;;;;;;9.95;6.40;;;4.60;99.90;;;;;;5002416;28;20301;-79
2021/04/15 07:29:17;;;;;;;11.38;5.80;;;4.90;99.90;;;;;;5015835;28;20647;-78
2021/04/15 07:32:06;;;;;;;15.98;6.75;;;4.90;99.90;;;;;;5018593;28;20227;-80
2021/04/15 07:35:02;;;;;;;12.43;6.65;;;5.20;99.90;;;;;;5025605;28;20214;-79
2021/04/15 07:37:47;;;;;;;8.50;4.70;;;5.40;99.90;;;;;;5006519;28;20293;-76
2021/04/15 07:40:34;;;;;;;12.80;6.72;;;5.30;99.90;;;;;;5011884;28;20294;-76
2021/04/15 07:43:08;;;;;;;9.30;5.25;;;5.50;99.90;;;;;;5012811;28;20231;-76
2021/04/15 07:45:42;;;;;;;8.75;5.20;;;5.40;99.90;;;;;;5013099;28;20290;-76
2021/04/15 07:48:38;;;;;;;7.20;4.22;;;5.40;99.90;;;;;;5012473;28;20721;-77
2021/04/15 07:51:49;;;;;;;11.32;5.10;;;5.30;99.90;;;;;;5000784;28;20216;-77
2021/04/15 07:54:37;;;;;;;12.95;6.30;;;5.50;99.90;;;;;;5002269;28;20200;-76
2021/04/15 07:57:41;;;;;;;10.05;5.55;;;5.70;99.90;;;;;;5014494;28;20230;-76
2021/04/15 08:00:39;;;;;;;10.05;5.43;;;5.90;99.90;;;;;;5005278;28;20291;-76
2021/04/15 08:03:46;;;;;;;8.13;5.85;;;5.80;99.90;;;;;;5001428;28;20279;-76
2021/04/15 08:06:31;;;;;;;9.80;5.05;;;5.70;99.90;;;;;;4994505;28;20311;-80
2021/04/15 08:09:23;;;;;;;10.38;5.40;;;5.80;99.90;;;;;;5020292;28;20227;-79
2021/04/15 08:12:11;;;;;;;8.00;4.45;;;5.80;99.90;;;;;;5020634;28;20271;-79
2021/04/15 08:15:20;;;;;;;9.07;5.35;;;5.80;99.90;;;;;;5024025;28;20207;-80
2021/04/15 08:18:11;;;;;;;4.68;2.35;;;5.90;99.90;;;;;;5021623;28;20338;-80
2021/04/15 08:21:08;;;;;;;12.55;5.80;;;5.80;99.90;;;;;;5019033;28;20266;-80
2021/04/15 08:24:11;;;;;;;9.00;4.82;;;5.80;99.90;;;;;;5004378;28;20235;-80
2021/04/15 08:27:18;;;;;;;8.43;5.25;;;5.90;99.90;;;;;;4985922;28;20228;-80
2021/04/15 08:30:19;;;;;;;11.60;6.03;;;5.80;99.90;;;;;;4976189;28;20228;-79
2021/04/15 08:33:02;;;;;;;9.25;5.60;;;6.10;99.90;;;;;;5009592;28;20238;-79
2021/04/15 08:35:38;;;;;;;8.02;5.88;;;6.30;99.30;;;;;;5002179;28;20683;-79
2021/04/15 08:38:23;;;;;;;7.93;5.30;;;6.50;99.20;;;;;;5029496;28;20207;-79
2021/04/15 08:40:56;;;;;;;9.55;6.22;;;6.50;99.00;;;;;;5024150;28;20208;-79
2021/04/15 08:43:39;;;;;;;7.97;5.65;;;6.40;98.10;;;;;;5018293;28;20219;-80
2021/04/15 08:46:17;;;;;;;10.63;4.70;;;6.80;98.10;;;;;;5014017;28;20266;-79
2021/04/15 08:48:54;;;;;;;6.40;2.60;;;6.60;97.60;;;;;;5018646;28;20243;-79
2021/04/15 08:52:03;;;;;;;9.13;5.40;;;6.60;97.80;;;;;;5009738;28;20592;-79
2021/04/15 08:54:44;;;;;;;15.45;5.50;;;6.50;97.70;;;;;;5017690;28;20204;-79
2021/04/15 08:57:25;;;;;;;7.72;5.22;;;6.60;97.30;;;;;;4999100;28;20232;-80
2021/04/15 09:00:01;;;;;;;15.77;7.10;;;6.70;97.10;;;;;;5003619;28;20200;-79
2021/04/15 09:02:49;;;;;;;6.38;3.35;;;6.90;97.00;;;;;;5018785;28;20210;-80
2021/04/15 09:05:25;;;;;;;11.75;6.10;;;6.80;96.00;;;;;;5017045;28;20263;-80
2021/04/15 09:08:05;;;;;;;7.28;4.82;;;6.90;96.30;;;;;;5018448;28;20294;-80
2021/04/15 09:10:35;;;;;;;10.00;5.20;;;6.90;95.30;;;;;;5016183;28;20266;-80
2021/04/15 09:13:25;;;;;;;8.35;5.68;;;7.30;95.20;;;;;;5017557;28;20512;-80
2021/04/15 09:16:06;;;;;;;11.00;6.18;;;7.30;94.80;;;;;;5016553;28;20258;-80
2021/04/15 09:18:39;;;;;;;9.97;5.10;;;7.30;95.00;;;;;;5011554;28;20266;-80
2021/04/15 09:21:21;;;;;;;8.18;3.78;;;7.30;94.40;;;;;;5013087;28;21094;-80
2021/04/15 09:24:06;;;;;;;6.18;3.90;;;7.40;94.10;;;;;;5017263;28;20215;-81
2021/04/15 09:26:52;;;;;;;7.95;4.80;;;7.40;93.30;;;;;;5022533;28;20223;-80
2021/04/15 09:29:31;;;;;;;8.20;4.57;;;7.30;93.40;;;;;;5024304;28;20256;-82
2021/04/15 09:32:05;;;;;;;7.57;4.60;;;7.30;93.20;;;;;;5015705;28;20204;-81
2021/04/15 09:35:00;;;;;;;7.50;4.40;;;7.70;93.30;;;;;;5018661;28;20249;-81
2021/04/15 09:37:48;;;;;;;6.23;3.80;;;7.70;92.90;;;;;;5028796;28;20856;-81
2021/04/15 09:40:27;;;;;;;10.77;5.35;;;7.90;93.10;;;;;;5019323;28;20454;-80
2021/04/15 09:43:09;;;;;;;6.63;4.97;;;7.80;93.10;;;;;;5019642;28;20868;-78
2021/04/15 09:45:49;;;;;;;7.63;5.40;;;8.00;92.70;;;;;;5024382;28;20461;-78
2021/04/15 09:48:44;;;;;;;7.33;4.57;;;8.20;92.70;;;;;;5020029;28;20479;-78
2021/04/15 09:51:25;;;;;;;12.40;4.10;;;8.30;91.50;;;;;;5006968;28;20922;-78
2021/04/15 09:53:57;;;;;;;9.07;4.10;;;8.20;90.90;;;;;;5019652;28;20479;-77
2021/04/15 09:56:40;;;;;;;6.40;3.80;;;8.10;90.80;;;;;;5015240;28;20910;-78
2021/04/15 09:59:16;;;;;;;5.50;3.70;;;8.10;90.60;;;;;;5013179;28;20216;-78
2021/04/15 10:01:48;;;;;;;6.63;3.77;;;8.30;90.10;;;;;;5001665;28;20446;-78
2021/04/15 10:04:21;;;;;;;7.67;3.53;;;8.30;90.30;;;;;;5013382;28;20490;-78
2021/04/15 10:06:54;;;;;;;8.00;3.80;;;8.70;87.80;;;;;;5012808;28;20492;-78
2021/04/15 10:09:36;;;;;;;7.57;3.97;;;8.80;85.10;;;;;;5012477;28;20474;-79
2021/04/15 10:12:42;;;;;;;6.40;3.10;;;8.90;84.90;;;;;;4997086;28;20517;-79
2021/04/15 10:15:28;;;;;;;6.57;3.27;;;9.00;81.20;;;;;;5001229;28;20453;-81
2021/04/15 10:18:25;;;;;;;5.63;3.27;;;9.00;79.90;;;;;;5015832;28;20581;-81
2021/04/15 10:21:14;;;;;;;4.77;2.30;;;9.20;77.70;;;;;;5002787;28;20460;-81
2021/04/15 10:24:07;;;;;;;4.47;2.33;;;9.10;75.10;;;;;;5006175;28;20481;-80
2021/04/15 10:27:03;;;;;;;7.10;4.00;;;8.50;78.80;;;;;;5014492;28;21263;-80
2021/04/15 10:29:59;;;;;;;5.40;3.70;;;8.30;79.90;;;;;;5008776;28;20515;-78
2021/04/15 10:32:47;;;;;;;5.60;2.43;;;8.80;83.80;;;;;;5007082;28;20475;-78
2021/04/15 10:35:43;;;;;;;5.70;3.07;;;8.80;87.80;;;;;;4999133;28;20455;-79
2021/04/15 10:38:42;;;;;;;5.70;3.13;;;8.60;90.00;;;;;;5030765;28;20454;-77
2021/04/15 10:41:35;;;;;;;5.80;3.10;;;8.50;90.00;;;;;;5017924;28;20453;-79
2021/04/15 10:44:48;;;;;;;7.80;4.67;;;8.70;90.60;;;;;;5016032;28;20511;-78
2021/04/15 10:47:28;;;;;;;7.10;3.63;;;8.60;90.20;;;;;;4991897;28;20472;-78
2021/04/15 10:50:08;;;;;;;5.00;3.10;;;8.70;90.00;;;;;;5010775;28;20558;-78
2021/04/15 10:53:03;;;;;;;9.13;3.75;;;8.80;88.10;;;;;;5008231;28;20509;-78
2021/04/15 10:55:43;;;;;;;5.40;3.40;;;8.20;86.90;;;;;;4993068;28;20219;-77
2021/04/15 10:58:38;;;;;;;6.85;3.97;;;8.50;87.80;;;;;;4994410;28;20315;-78
2021/04/15 11:01:27;;;;;;;5.77;3.30;;;8.50;86.50;;;;;;4968969;28;20220;-77
2021/04/15 11:03:56;;;;;;;5.80;3.57;;;8.70;85.10;;;;;;4993638;28;20470;-81
2021/04/15 11:06:34;;;;;;;6.70;4.00;;;8.80;84.60;;;;;;5012319;28;20518;-81
2021/04/15 11:09:20;;;;;;;5.93;3.97;;;8.70;83.40;;;;;;5026205;28;20506;-80
2021/04/15 11:11:56;;;;;;;10.33;3.97;;;8.90;83.30;;;;;;5007972;28;20451;-81
2021/04/15 11:14:25;;;;;;;6.00;3.03;;;9.10;80.30;;;;;;5007706;28;20435;-81
2021/04/15 11:16:53;;;;;;;7.60;3.40;;;9.00;78.00;;;;;;5007215;28;20476;-81
2021/04/15 11:19:25;;;;;;;5.73;3.53;;;8.90;80.70;;;;;;5007078;28;20448;-81
2021/04/15 11:21:53;;;;;;;15.00;3.50;;;8.80;80.30;;;;;;5024597;28;20545;-81
2021/04/15 11:24:30;;;;;;;5.60;3.40;;;8.90;79.90;;;;;;5026551;28;20450;-80
2021/04/15 11:26:59;;;;;;;6.90;1.50;;;9.20;80.30;;;;;;5028266;28;20466;-81
2021/04/15 11:29:27;;;;;;;6.20;2.93;;;8.90;79.20;;;;;;5030672;28;20467;-81
2021/04/15 11:31:56;;;;;;;2.87;1.50;;;8.80;79.10;;;;;;5011632;28;20490;-82
2021/04/15 11:34:26;;;;;;;7.97;2.10;;;9.00;80.10;;;;;;5009862;28;20448;-82
2021/04/15 11:37:03;;;;;;;5.67;3.00;;;8.90;78.80;;;;;;5011298;28;20516;-82
2021/04/15 11:39:32;;;;;;;6.23;3.47;;;8.90;79.10;;;;;;5037625;28;20446;-82
2021/04/15 11:42:02;;;;;;;4.73;2.90;;;8.90;79.10;;;;;;5007408;28;20514;-81
2021/04/15 11:44:32;;;;;;;3.30;2.00;;;9.40;79.10;;;;;;5000722;28;20506;-80
2021/04/15 11:47:02;;;;;;;4.10;2.30;;;9.10;79.30;;;;;;5002463;28;20471;-86
2021/04/15 11:49:31;;;;;;;4.70;3.00;;;9.00;79.60;;;;;;5018035;28;20554;-82
2021/04/15 11:52:12;;;;;;;5.00;3.17;;;8.60;80.30;;;;;;5008039;28;20455;-80
2021/04/15 11:54:41;;;;;;;7.33;2.83;;;9.00;81.70;;;;;;4997718;28;20459;-80
2021/04/15 11:57:26;;;;;;;2.60;1.47;;;9.20;80.60;;;;;;5014299;28;20445;-79
2021/04/15 12:00:17;;;;;;;7.67;3.60;;;8.90;79.20;;;;;;5018567;28;20452;-80
2021/04/15 12:02:49;;;;;;;5.40;2.93;;;9.20;80.60;;;;;;5021794;28;20505;-80
2021/04/15 12:05:27;;;;;;;5.70;3.00;;;9.40;79.40;;;;;;5024434;28;20482;-81
2021/04/15 12:07:58;;;;;;;5.37;2.30;;;9.50;78.60;;;;;;5022106;28;20498;-80
2021/04/15 12:10:28;;;;;;;4.23;2.63;;;9.20;75.00;;;;;;5019245;28;20562;-80
2021/04/15 12:13:01;;;;;;;5.93;3.10;;;9.10;75.70;;;;;;5017572;28;20650;-81
2021/04/15 12:15:32;;;;;;;4.67;2.67;;;9.10;74.30;;;;;;5021703;28;20496;-82
2021/04/15 12:18:06;;;;;;;5.10;2.90;;;9.30;72.20;;;;;;5006964;28;20435;-82
2021/04/15 12:20:38;;;;;;;5.30;2.60;;;9.00;71.60;;;;;;5020318;28;20864;-82
2021/04/15 12:23:14;;;;;;;9.97;6.40;;;9.50;70.10;;;;;;5016923;28;20970;-86
2021/04/15 12:25:47;;;;;;;4.10;2.30;;;9.50;71.40;;;;;;5016438;28;20461;-83
2021/04/15 12:28:26;;;;;;;4.60;2.47;;;9.70;70.00;;;;;;4996287;28;20504;-82
2021/04/15 12:30:59;;;;;;;3.80;2.13;;;9.70;69.20;;;;;;5013556;28;20549;-83
2021/04/15 12:33:35;;;;;;;5.20;3.00;;;9.50;69.90;;;;;;5027132;28;20545;-82
2021/04/15 12:36:12;;;;;;;6.53;3.33;;;9.40;72.30;;;;;;5026121;28;20478;-82
2021/04/15 12:38:43;;;;;;;6.03;2.80;;;9.40;72.70;;;;;;5025587;28;20942;-82
2021/04/15 12:41:13;;;;;;;5.17;1.57;;;9.50;71.30;;;;;;5026087;28;20433;-82
2021/04/15 12:43:42;;;;;;;6.40;2.67;;;9.50;67.70;;;;;;5024700;28;20450;-81
2021/04/15 12:46:19;;;;;;;8.07;2.63;;;9.60;68.70;;;;;;5024144;28;20471;-82
2021/04/15 12:48:50;;;;;;;7.67;3.27;;;9.60;69.60;;;;;;5027854;28;20474;-80
2021/04/15 12:51:24;;;;;;;3.10;1.77;;;9.60;69.30;;;;;;5034661;28;20462;-80
2021/04/15 12:53:51;;;;;;;4.90;2.57;;;9.70;67.80;;;;;;5021651;28;20752;-81
2021/04/15 12:56:21;;;;;;;4.77;3.20;;;9.30;67.50;;;;;;5026767;28;20449;-81
2021/04/15 12:58:54;;;;;;;6.63;3.20;;;9.40;68.90;;;;;;5028656;28;20502;-83
2021/04/15 13:01:21;;;;;;;6.60;3.50;;;9.60;70.70;;;;;;5018574;28;20793;-82
2021/04/15 13:03:49;;;;;;;5.93;3.13;;;9.90;71.30;;;;;;5010247;28;20456;-81
2021/04/15 13:06:17;;;;;;;5.37;3.03;;;10.10;70.00;;;;;;5009376;28;20475;-81
2021/04/15 13:08:47;;;;;;;4.40;2.77;;;10.20;68.70;;;;;;5021157;28;20490;-81
2021/04/15 13:11:39;;;;;;;4.93;2.93;;;10.30;69.20;;;;;;5020349;28;20502;-85
2021/04/15 13:14:15;;;;;;;7.03;2.63;;;10.30;68.50;;;;;;5018760;28;20459;-84
2021/04/15 13:16:49;;;;;;;4.17;2.40;;;10.00;68.70;;;;;;5020708;28;20493;-83
2021/04/15 13:19:40;;;;;;;5.00;3.13;;;9.80;69.40;;;;;;5028584;28;20628;-82
2021/04/15 13:22:25;;;;;;;4.63;2.80;;;9.60;71.30;;;;;;5026384;28;20554;-82
2021/04/15 13:25:11;;;;;;;7.90;3.30;;;9.50;76.30;;;;;;5044546;28;20434;-82
2021/04/15 13:27:59;;;;;;;5.03;3.07;;;9.40;79.60;;;;;;5014000;28;20449;-77
2021/04/15 13:31:02;;;;;;;5.80;3.20;;;9.10;80.40;;;;;;5012431;28;20475;-78
2021/04/15 13:34:02;;;;;;;5.90;2.90;;;9.10;81.80;;;;;;5012582;28;20862;-78
2021/04/15 13:36:29;;;;;;;4.35;3.40;;;8.80;83.20;;;;;;4999519;28;20555;-78
2021/04/15 13:39:31;;;;;;;4.87;2.07;;;8.80;84.40;;;;;;4999336;28;20253;-78
2021/04/15 13:42:08;;;;;;;5.22;2.78;;;8.70;83.60;;;;;;5006051;28;20997;-79